Aérodrome :
LOGIN :

S'inscrire | Disclaimer

   EN    FR    IT 

 










Légende :    VFR   VFR Marginal   IFR   IFR Intensif   IFR Très Intensif
Visi : 
Plafond : 
>= 8 km
>= 3000ft
5 à 8 km
1000 à 3000 ft
1500m à 5 km
500 à 1000 ft
800 à 1500m
200 à 500 ft
< 800m
< 200 ft
Symboles :   Orages  Brouillard  Fortes neiges  Fortes précipitations  Vent > 20 kt
SIGMETs :   Divers  Orages  Givrage  Turbulence  Onde Orograph.  Cendres Volcan.







- Altitude de l'aérodrome : 463 ft
- Code IATA : QAS


DAOI - Chlef Int.

DERNIER METAR :
  • 261600Z 01010KT 8000 SCT023 FEW026CB BKN040 19/15 Q1011

METARs EXPIRÉS :
  • 261500Z 36014KT 8000 FEW023 FEW026CB SCT030 20/16 Q1011
  • 261400Z 36010KT 8000 FEW023 FEW026CB SCT030 20/16 Q1011

TAF TAF DAOI
Valide du 26 à 12h jusqu'au 27 à 12h UTC


261100Z 2612/2712 VRB02KT 7000 RA BKN026 SCT030CB SCT100
BECMG 2615/2618 36010KT 9999 SCT026
TEMPO 2621/2708 2000 DZ BR
BECMG 2709/2712 30010KT 8000 SCT010 BKN023
Pas de NOTAMs connus pour ce terrain.
2 SIGMETs publiés pour la FIR Alger (DAAA) :
 
Orages noyés dans la masse
DAAA SIGMET 3 VALID 261515/261715 DAMM
DAAA ALGER FIR EMBD TS FCST WI N3609 E00612 - N3504 E00626 - N3507 E00428 - N3554 E00432 - N3609 E00612 TOP FL320 MOV NE NC=
Orages noyés dans la masse
DAAA SIGMET 2 VALID 261400/261800 DAMM
DAAA ALGER FIR EMBD TS FCST WI N3620 E00340 - N3525 E00424 - N3348 E00230 - N3234 W00004 - N3419 W00133 - N3620 E00340 TOP FL310 STNR NC=



MET'MAP, la Météo Aéronautique d'un coup d'oeil ! - Copyright ORBIFLY Décembre 2007 - Disclaimer

ORBIFLY MET'MAP TEAM :

Programmation & Développement : Alexandra Zaïnal
Conception & Développement : Baudouin d'Aumeries
Co-Programmation & Développement : Marc-Olivier Méhu
Soutien technique & logistique : Manuel Goepfert

Contact : metmap@orbifly.com




SOURCES & CREDITS :

   NOAA